createdAt,value
2022-11-24T00:00:22.935Z,35.10
2022-11-24T00:05:44.816Z,37.80
2022-11-24T00:10:46.627Z,38.00
2022-11-24T00:15:48.370Z,31.60
2022-11-24T00:20:53.348Z,29.60
2022-11-24T00:25:55.434Z,37.10
2022-11-24T00:30:57.340Z,33.70
2022-11-24T00:36:00.430Z,28.30
2022-11-24T00:41:02.170Z,27.50
2022-11-24T00:46:04.379Z,32.70
2022-11-24T00:51:10.060Z,30.50
2022-11-24T00:56:12.123Z,35.90
2022-11-24T01:01:18.077Z,29.10
2022-11-24T01:06:26.548Z,27.70
2022-11-24T01:11:50.595Z,25.70
2022-11-24T01:16:52.686Z,24.90
2022-11-24T01:21:54.523Z,22.90
2022-11-24T01:26:56.300Z,24.00
2022-11-24T01:31:58.027Z,26.20
2022-11-24T01:36:59.780Z,26.70
2022-11-24T01:42:01.653Z,27.10
2022-11-24T01:47:12.295Z,31.50
2022-11-24T01:52:33.006Z,31.50
2022-11-24T01:57:59.346Z,35.40
2022-11-24T02:03:01.280Z,40.00
2022-11-24T02:08:04.619Z,34.40
2022-11-24T02:13:06.425Z,32.40
2022-11-24T02:18:08.214Z,37.00
2022-11-24T02:23:42.011Z,36.90
2022-11-24T02:28:43.864Z,36.00
2022-11-24T02:33:46.616Z,33.00
2022-11-24T02:38:48.894Z,35.30
2022-11-24T02:44:01.343Z,35.30
2022-11-24T02:49:03.141Z,37.30
2022-11-24T02:54:04.900Z,38.60
2022-11-24T02:59:06.674Z,35.10
2022-11-24T03:04:08.472Z,36.30
2022-11-24T03:09:11.027Z,34.70
2022-11-24T03:14:12.908Z,32.40
2022-11-24T03:19:14.642Z,39.70
2022-11-24T03:24:16.468Z,38.40
2022-11-24T03:29:18.352Z,44.30
2022-11-24T03:34:20.124Z,44.80
2022-11-24T03:39:21.947Z,50.10
2022-11-24T03:44:23.701Z,46.30
2022-11-24T03:49:25.467Z,50.90
2022-11-24T03:54:27.530Z,47.70
2022-11-24T03:59:29.298Z,49.50
2022-11-24T04:04:31.188Z,51.50
2022-11-24T04:09:33.040Z,47.90
2022-11-24T04:14:35.586Z,51.20
2022-11-24T04:19:37.610Z,47.30
2022-11-24T04:24:39.343Z,54.30
2022-11-24T04:29:41.059Z,46.80
2022-11-24T04:34:43.344Z,46.70
2022-11-24T04:39:45.956Z,47.30
2022-11-24T04:44:47.704Z,49.50
2022-11-24T04:49:49.925Z,54.70
2022-11-24T04:54:52.302Z,48.80
2022-11-24T04:59:54.665Z,50.30
2022-11-24T05:04:56.423Z,45.30
2022-11-24T05:10:17.027Z,48.70
2022-11-24T05:15:18.687Z,50.70
2022-11-24T05:20:21.017Z,49.10
2022-11-24T05:25:22.685Z,48.20
2022-11-24T05:30:24.638Z,45.00
2022-11-24T05:35:26.538Z,47.80
2022-11-24T05:40:28.196Z,45.60
2022-11-24T05:45:29.915Z,41.90
2022-11-24T05:50:32.101Z,51.40
2022-11-24T05:55:35.001Z,40.00
2022-11-24T06:00:36.938Z,45.80
2022-11-24T06:05:38.847Z,39.80
2022-11-24T06:10:40.484Z,42.50
2022-11-24T06:15:42.129Z,47.80
2022-11-24T06:20:53.139Z,38.60
2022-11-24T06:26:06.056Z,40.50
2022-11-24T06:31:10.110Z,35.30
2022-11-24T06:36:14.377Z,38.60
2022-11-24T06:41:16.385Z,40.00
2022-11-24T06:46:18.563Z,44.00
2022-11-24T06:51:20.232Z,33.40
2022-11-24T06:56:22.108Z,43.50
2022-11-24T07:01:27.665Z,43.00
2022-11-24T07:06:29.382Z,25.10
2022-11-24T07:11:30.969Z,33.90
2022-11-24T07:16:33.151Z,36.80
2022-11-24T07:21:34.809Z,37.70
2022-11-24T07:26:37.431Z,35.00
2022-11-24T07:31:39.374Z,35.40
2022-11-24T07:36:42.334Z,33.50
2022-11-24T07:41:43.959Z,39.00
2022-11-24T07:46:46.062Z,49.00
2022-11-24T07:51:47.772Z,38.40
2022-11-24T07:56:49.369Z,33.90
2022-11-24T08:01:51.579Z,52.40
2022-11-24T08:06:53.313Z,39.50
2022-11-24T08:11:54.959Z,33.40
2022-11-24T08:16:57.994Z,35.70
2022-11-24T08:22:00.419Z,29.30
2022-11-24T08:27:02.436Z,35.40
2022-11-24T08:32:04.581Z,40.70
2022-11-24T08:37:06.349Z,35.30
2022-11-24T08:42:08.003Z,33.60
2022-11-24T08:47:09.664Z,30.10
2022-11-24T08:52:11.262Z,28.30
2022-11-24T08:57:21.454Z,37.60
2022-11-24T09:02:23.680Z,66.50
2022-11-24T09:07:25.369Z,126.50
2022-11-24T09:12:27.723Z,36.00
2022-11-24T09:17:29.333Z,30.20
2022-11-24T09:22:31.647Z,34.90
2022-11-24T09:27:33.301Z,31.00
2022-11-24T09:32:34.925Z,33.50
2022-11-24T09:37:36.597Z,33.30
2022-11-24T09:42:45.237Z,32.50
2022-11-24T09:48:02.591Z,32.70
2022-11-24T09:53:31.767Z,34.00
2022-11-24T09:58:51.190Z,34.20
2022-11-24T10:03:54.270Z,24.90
2022-11-24T10:09:30.526Z,31.60
2022-11-24T10:15:40.212Z,32.80
2022-11-24T10:21:05.240Z,28.40
2022-11-24T10:26:30.533Z,23.00
2022-11-24T10:31:38.694Z,29.30
2022-11-24T10:36:46.668Z,23.30
2022-11-24T10:42:42.127Z,24.30
2022-11-24T10:47:45.095Z,30.90
2022-11-24T10:53:07.607Z,30.30
2022-11-24T10:58:16.647Z,32.70
2022-11-24T11:03:26.466Z,27.50
2022-11-24T11:08:31.405Z,29.30
2022-11-24T11:13:33.073Z,25.40
2022-11-24T11:18:35.520Z,31.00
2022-11-24T11:23:45.496Z,27.70
2022-11-24T11:34:34.647Z,29.70
2022-11-24T11:39:45.382Z,28.30
2022-11-24T11:45:05.001Z,29.80
2022-11-24T11:50:24.018Z,29.40
2022-11-24T11:55:50.203Z,28.00
2022-11-24T12:01:36.887Z,25.90
2022-11-24T12:06:53.899Z,26.10
2022-11-24T12:12:45.836Z,25.60
2022-11-24T12:18:57.100Z,21.80
2022-11-24T12:24:37.212Z,22.40
2022-11-24T12:30:09.093Z,23.00
2022-11-24T12:35:35.264Z,26.20
2022-11-24T12:41:33.528Z,22.70
2022-11-24T12:46:40.295Z,21.80
2022-11-24T12:51:47.653Z,25.50
2022-11-24T12:57:12.905Z,23.70
2022-11-24T13:02:39.289Z,25.20
2022-11-24T13:07:57.007Z,45.70
2022-11-24T13:13:03.379Z,43.00
2022-11-24T13:18:44.645Z,36.30
2022-11-24T13:29:33.790Z,67.30
2022-11-24T13:34:38.313Z,308.40
2022-11-24T13:40:02.987Z,187.90
2022-11-24T13:45:28.888Z,66.50
2022-11-24T13:50:50.754Z,28.70
2022-11-24T13:56:00.368Z,32.40
2022-11-24T14:01:03.474Z,27.90
2022-11-24T14:06:05.539Z,48.40
2022-11-24T14:11:18.074Z,39.30
2022-11-24T14:16:23.149Z,32.90
2022-11-24T14:21:43.764Z,30.20
2022-11-24T14:26:46.898Z,30.60
2022-11-24T14:31:57.700Z,23.70
2022-11-24T14:37:00.870Z,28.70
2022-11-24T14:42:25.070Z,24.70
2022-11-24T14:47:43.839Z,29.80
2022-11-24T14:52:55.869Z,28.60
2022-11-24T14:57:59.554Z,30.00
2022-11-24T15:03:01.231Z,31.30
2022-11-24T15:08:03.205Z,39.90
2022-11-24T15:13:22.129Z,31.50
2022-11-24T15:18:34.783Z,35.50
2022-11-24T15:23:37.334Z,45.80
2022-11-24T15:28:39.972Z,35.70
2022-11-24T15:33:41.857Z,45.90
2022-11-24T15:38:43.465Z,92.50
2022-11-24T15:43:45.362Z,54.60
2022-11-24T15:48:47.044Z,47.30
2022-11-24T15:54:00.391Z,69.70
2022-11-24T15:59:03.897Z,81.00
2022-11-24T16:04:05.574Z,57.00
2022-11-24T16:09:15.801Z,53.00
2022-11-24T16:14:17.489Z,52.80
2022-11-24T16:19:19.123Z,39.10
2022-11-24T16:24:20.781Z,36.30
2022-11-24T16:29:24.099Z,39.50
2022-11-24T16:34:25.678Z,44.40
2022-11-24T16:39:27.312Z,37.80
2022-11-24T16:44:29.038Z,38.30
2022-11-24T16:49:30.726Z,36.80
2022-11-24T16:54:32.585Z,38.00
2022-11-24T16:59:34.687Z,34.30
2022-11-24T17:04:36.566Z,37.10
2022-11-24T17:09:40.801Z,29.30
2022-11-24T17:14:44.345Z,35.10
2022-11-24T17:19:51.761Z,39.10
2022-11-24T17:24:53.382Z,31.90
2022-11-24T17:29:54.997Z,47.50
2022-11-24T17:34:56.592Z,47.50
2022-11-24T17:40:20.640Z,45.20
2022-11-24T17:45:20.229Z,50.00
2022-11-24T17:50:25.780Z,53.30
2022-11-24T17:55:27.850Z,53.60
2022-11-24T18:00:29.725Z,56.50
2022-11-24T18:05:36.100Z,46.50
2022-11-24T18:10:38.248Z,179.70
2022-11-24T18:15:40.493Z,678.00
2022-11-24T18:20:42.085Z,397.10
2022-11-24T18:25:43.686Z,50.80
2022-11-24T18:30:45.424Z,47.90
2022-11-24T18:36:01.214Z,45.20
2022-11-24T18:41:04.751Z,46.50
2022-11-24T18:46:10.957Z,51.20
2022-11-24T18:51:17.067Z,50.00
2022-11-24T18:56:18.728Z,49.10
2022-11-24T19:01:28.154Z,47.70
2022-11-24T19:06:33.140Z,55.70
2022-11-24T19:11:38.407Z,50.90
2022-11-24T19:16:41.052Z,81.60
2022-11-24T19:21:42.847Z,57.40
2022-11-24T19:26:44.776Z,62.90
2022-11-24T19:31:47.308Z,63.30
2022-11-24T19:36:48.993Z,63.70
2022-11-24T19:41:52.424Z,59.60
2022-11-24T19:46:54.045Z,56.90
2022-11-24T19:51:55.646Z,54.10
2022-11-24T19:56:57.251Z,60.00
2022-11-24T20:01:59.522Z,58.10
2022-11-24T20:07:01.295Z,77.10
2022-11-24T20:12:03.416Z,81.10
2022-11-24T20:17:06.093Z,97.80
2022-11-24T20:22:07.698Z,92.90
2022-11-24T20:27:09.440Z,148.20
2022-11-24T20:32:16.787Z,155.90
2022-11-24T20:37:18.367Z,125.70
2022-11-24T20:42:20.031Z,112.40
2022-11-24T20:47:21.638Z,92.20
2022-11-24T20:52:23.244Z,83.50
2022-11-24T20:57:24.846Z,90.80
2022-11-24T21:02:26.672Z,91.10
2022-11-24T21:07:28.513Z,90.10
2022-11-24T21:12:30.147Z,87.30
2022-11-24T21:17:31.997Z,68.60
2022-11-24T21:22:34.840Z,84.80
2022-11-24T21:27:36.440Z,65.50
2022-11-24T21:32:38.051Z,68.60
2022-11-24T21:37:39.674Z,59.10
2022-11-24T21:42:41.286Z,56.20
2022-11-24T21:47:45.771Z,74.90
2022-11-24T21:52:47.393Z,68.30
2022-11-24T21:57:48.955Z,70.70
2022-11-24T22:02:50.609Z,75.20
2022-11-24T22:07:52.557Z,72.80
2022-11-24T22:12:54.641Z,70.20
2022-11-24T22:17:57.365Z,70.60
2022-11-24T22:22:58.977Z,62.60
2022-11-24T22:28:00.584Z,74.70
2022-11-24T22:33:02.175Z,64.60
2022-11-24T22:38:03.738Z,103.50
2022-11-24T22:43:05.395Z,74.60
2022-11-24T22:48:07.007Z,83.50
2022-11-24T22:53:08.733Z,84.40
2022-11-24T22:58:10.327Z,82.10
2022-11-24T23:03:12.121Z,81.20
2022-11-24T23:08:13.910Z,73.00
2022-11-24T23:13:15.557Z,83.70
2022-11-24T23:18:17.149Z,70.40
2022-11-24T23:23:18.741Z,145.10
2022-11-24T23:28:20.349Z,256.10
2022-11-24T23:33:21.947Z,223.50
2022-11-24T23:38:29.403Z,127.50
2022-11-24T23:43:32.938Z,103.00
2022-11-24T23:48:35.287Z,122.60
2022-11-24T23:53:37.020Z,127.40
2022-11-24T23:58:38.752Z,159.90
